createdAt,value
2019-05-30T00:00:38.840Z,96838.66
2019-05-30T00:03:28.624Z,96858.26
2019-05-30T00:06:18.383Z,96862.22
2019-05-30T00:12:33.966Z,96856.21
2019-05-30T00:15:16.285Z,96850.51
2019-05-30T00:18:05.996Z,96853.01
2019-05-30T00:20:48.753Z,96836.41
2019-05-30T00:23:38.492Z,96847.56
2019-05-30T00:26:21.075Z,96846.80
2019-05-30T00:32:13.305Z,96828.85
2019-05-30T00:35:03.829Z,96850.06
2019-05-30T00:37:47.607Z,96844.47
2019-05-30T00:40:30.206Z,96850.41
2019-05-30T00:43:19.990Z,96847.83
2019-05-30T00:46:09.782Z,96844.77
2019-05-30T00:49:00.188Z,96848.30
2019-05-30T00:51:43.867Z,96844.18
2019-05-30T00:54:33.648Z,96854.84
2019-05-30T00:57:23.430Z,96840.88
2019-05-30T01:00:13.333Z,96853.27
2019-05-30T01:08:26.338Z,96857.04
2019-05-30T01:11:16.075Z,96859.19
2019-05-30T01:14:07.346Z,96861.77
2019-05-30T01:16:50.614Z,96850.55
2019-05-30T01:19:40.448Z,96855.12
2019-05-30T01:22:23.159Z,96844.31
2019-05-30T01:25:33.392Z,96843.23
2019-05-30T01:28:15.885Z,96852.11
2019-05-30T01:31:10.999Z,96842.91
2019-05-30T01:33:49.945Z,96844.38
2019-05-30T01:36:39.763Z,96841.23
2019-05-30T01:39:42.259Z,96843.32
2019-05-30T01:42:24.660Z,96834.25
2019-05-30T01:48:09.413Z,96839.88
2019-05-30T01:51:11.269Z,96837.45
2019-05-30T01:53:53.853Z,96837.02
2019-05-30T01:56:43.907Z,96827.37
2019-05-30T01:59:34.679Z,96832.94
2019-05-30T02:02:24.557Z,96813.56
2019-05-30T02:05:14.628Z,96840.75
2019-05-30T02:07:56.791Z,96835.38
2019-05-30T02:10:46.525Z,96835.24
2019-05-30T02:13:36.331Z,96832.52
2019-05-30T02:16:26.095Z,96826.31
2019-05-30T02:19:15.872Z,96842.58
2019-05-30T02:22:05.872Z,96843.94
2019-05-30T02:24:53.563Z,96842.48
2019-05-30T02:27:37.510Z,96838.08
2019-05-30T02:30:27.550Z,96827.47
2019-05-30T02:33:17.519Z,96840.73
2019-05-30T02:36:08.438Z,96845.44
2019-05-30T02:38:51.952Z,96848.95
2019-05-30T02:41:41.746Z,96853.41
2019-05-30T02:44:25.574Z,96859.29
2019-05-30T02:47:15.323Z,96856.30
2019-05-30T02:49:57.673Z,96858.13
2019-05-30T02:52:44.077Z,96846.41
2019-05-30T02:55:26.563Z,96860.27
2019-05-30T02:58:16.687Z,96861.40
2019-05-30T03:01:08.565Z,96868.04
2019-05-30T03:03:52.297Z,96865.64
2019-05-30T03:06:42.085Z,96869.27
2019-05-30T03:09:24.650Z,96874.94
2019-05-30T03:12:14.438Z,96876.42
2019-05-30T03:17:41.199Z,96859.16
2019-05-30T03:20:22.126Z,96885.44
2019-05-30T03:23:05.777Z,96884.98
2019-05-30T03:25:55.251Z,96892.73
2019-05-30T03:28:37.577Z,96866.23
2019-05-30T03:31:47.808Z,96891.95
2019-05-30T03:34:29.786Z,96902.91
2019-05-30T03:37:28.817Z,96911.03
2019-05-30T03:40:03.794Z,96903.90
2019-05-30T03:42:53.754Z,96907.72
2019-05-30T03:45:35.790Z,96915.28
2019-05-30T03:48:46.128Z,96919.70
2019-05-30T03:51:36.027Z,96924.09
2019-05-30T03:54:58.387Z,96924.39
2019-05-30T03:57:42.586Z,96925.73
2019-05-30T04:01:14.904Z,96919.02
2019-05-30T04:04:19.139Z,96937.22
2019-05-30T04:07:03.500Z,96940.31
2019-05-30T04:13:09.914Z,96939.45
2019-05-30T04:16:00.684Z,96941.60
2019-05-30T04:18:50.541Z,96910.39
2019-05-30T04:21:40.304Z,96943.36
2019-05-30T04:24:22.703Z,96919.50
2019-05-30T04:27:13.812Z,96944.31
2019-05-30T04:29:57.100Z,96936.45
2019-05-30T04:32:46.928Z,96937.11
2019-05-30T04:38:40.925Z,96941.95
2019-05-30T04:41:23.356Z,96911.88
2019-05-30T04:44:14.487Z,96939.05
2019-05-30T04:46:57.188Z,96940.98
2019-05-30T04:49:47.078Z,96939.89
2019-05-30T04:52:29.229Z,96933.48
2019-05-30T04:55:22.370Z,96938.13
2019-05-30T04:58:04.411Z,96939.38
2019-05-30T05:00:56.207Z,96910.48
2019-05-30T05:03:46.284Z,96940.91
2019-05-30T05:06:33.695Z,96940.17
2019-05-30T05:09:18.024Z,96947.57
2019-05-30T05:12:08.068Z,96922.37
2019-05-30T05:14:50.925Z,96946.63
2019-05-30T05:17:40.685Z,96956.23
2019-05-30T05:20:23.572Z,96956.15
2019-05-30T05:23:13.341Z,96959.31
2019-05-30T05:28:47.511Z,96966.48
2019-05-30T05:31:22.657Z,96971.47
2019-05-30T05:34:05.947Z,96975.91
2019-05-30T05:36:55.641Z,96972.75
2019-05-30T05:39:45.395Z,96976.27
2019-05-30T05:42:16.126Z,96972.77
2019-05-30T05:45:06.392Z,96977.48
2019-05-30T05:47:56.134Z,96975.48
2019-05-30T05:50:38.432Z,96980.19
2019-05-30T05:53:29.064Z,96982.19
2019-05-30T05:56:11.919Z,96975.28
2019-05-30T05:58:42.635Z,96975.20
2019-05-30T06:01:13.508Z,96978.56
2019-05-30T06:03:44.192Z,96980.94
2019-05-30T06:06:14.818Z,96985.55
2019-05-30T06:08:45.492Z,96983.05
2019-05-30T06:11:16.619Z,96981.23
2019-05-30T06:13:47.359Z,96983.88
2019-05-30T06:39:08.938Z,97010.31
2019-05-30T06:41:40.914Z,97003.13
2019-05-30T06:44:11.589Z,97004.65
2019-05-30T06:46:42.430Z,97005.23
2019-05-30T07:15:01.408Z,97016.25
2019-05-30T07:17:51.202Z,97013.34
2019-05-30T07:20:41.233Z,97020.47
2019-05-30T07:23:32.007Z,97004.30
2019-05-30T07:26:16.381Z,97013.49
2019-05-30T07:29:00.615Z,97023.23
2019-05-30T07:31:50.031Z,97027.17
2019-05-30T07:34:34.282Z,97030.27
2019-05-30T07:37:24.482Z,97021.99
2019-05-30T07:40:10.993Z,97024.47
2019-05-30T07:43:00.893Z,97024.62
2019-05-30T07:45:48.661Z,97030.65
2019-05-30T07:48:34.883Z,97034.67
2019-05-30T07:51:36.467Z,97031.02
2019-05-30T07:54:18.717Z,97033.39
2019-05-30T07:57:08.467Z,97035.94
2019-05-30T07:59:58.285Z,97041.47
2019-05-30T08:02:48.067Z,97038.84
2019-05-30T08:05:38.888Z,97037.31
2019-05-30T08:08:21.643Z,97028.32
2019-05-30T08:11:23.517Z,97029.94
2019-05-30T08:14:06.082Z,97025.97
2019-05-30T08:16:55.810Z,97035.51
2019-05-30T08:19:40.937Z,97039.97
2019-05-30T08:22:31.879Z,97036.84
2019-05-30T08:25:15.121Z,97043.95
2019-05-30T08:28:04.871Z,97041.58
2019-05-30T08:30:46.807Z,97009.14
2019-05-30T08:33:37.646Z,97037.41
2019-05-30T08:36:20.263Z,97011.67
2019-05-30T08:39:10.034Z,97019.37
2019-05-30T08:41:52.588Z,97017.80
2019-05-30T08:44:42.313Z,97030.14
2019-05-30T08:47:24.617Z,97029.91
2019-05-30T08:50:14.910Z,97026.07
2019-05-30T08:52:57.805Z,97024.02
2019-05-30T08:55:40.689Z,97018.84
2019-05-30T08:58:30.554Z,97024.43
2019-05-30T09:01:20.362Z,97019.84
2019-05-30T09:04:29.220Z,97020.78
2019-05-30T09:07:19.059Z,97017.45
2019-05-30T09:13:22.706Z,97017.22
2019-05-30T09:16:12.805Z,97016.08
2019-05-30T09:19:02.626Z,97011.89
2019-05-30T09:21:52.371Z,97009.61
2019-05-30T09:24:42.447Z,97015.88
2019-05-30T09:27:32.140Z,97013.33
2019-05-30T09:30:14.724Z,97009.34
2019-05-30T09:33:04.512Z,97008.41
2019-05-30T09:35:54.426Z,96995.58
2019-05-30T09:38:45.319Z,97008.95
2019-05-30T09:41:30.933Z,97004.25
2019-05-30T09:44:20.728Z,97003.52
2019-05-30T09:47:10.469Z,96980.53
2019-05-30T09:50:03.719Z,97001.00
2019-05-30T09:52:45.223Z,97001.64
2019-05-30T09:55:35.143Z,96996.47
2019-05-30T09:58:25.175Z,97000.80
2019-05-30T10:01:14.937Z,96999.74
2019-05-30T10:04:04.656Z,96998.33
2019-05-30T10:06:46.743Z,96989.70
2019-05-30T10:09:36.544Z,96982.52
2019-05-30T10:12:26.274Z,96982.62
2019-05-30T10:15:16.049Z,96985.66
2019-05-30T10:18:06.262Z,96982.55
2019-05-30T10:20:57.116Z,96979.98
2019-05-30T10:23:40.865Z,96975.81
2019-05-30T10:26:30.721Z,96975.41
2019-05-30T10:29:21.232Z,96975.89
2019-05-30T10:32:11.014Z,96978.05
2019-05-30T10:35:00.823Z,96980.92
2019-05-30T10:37:50.989Z,96980.45
2019-05-30T10:40:35.605Z,96978.06
2019-05-30T10:43:25.315Z,96963.25
2019-05-30T10:46:15.209Z,96969.26
2019-05-30T10:49:34.369Z,96971.36
2019-05-30T10:52:08.324Z,96964.70
2019-05-30T10:54:58.113Z,96959.53
2019-05-30T10:57:49.924Z,96950.82
2019-05-30T11:00:55.817Z,96945.88
2019-05-30T11:03:41.023Z,96958.52
2019-05-30T11:07:11.640Z,96947.43
2019-05-30T11:10:23.605Z,96959.91
2019-05-30T11:16:03.639Z,96951.00
2019-05-30T11:18:47.516Z,96932.58
2019-05-30T11:21:37.901Z,96939.57
2019-05-30T11:24:28.227Z,96943.48
2019-05-30T11:27:18.815Z,96948.64
2019-05-30T11:30:01.761Z,96947.22
2019-05-30T11:32:53.102Z,96938.03
2019-05-30T11:35:37.321Z,96912.78
2019-05-30T11:38:46.755Z,96933.44
2019-05-30T11:44:40.229Z,96935.27
2019-05-30T11:47:22.333Z,96923.15
2019-05-30T11:50:13.044Z,96911.64
2019-05-30T11:52:57.962Z,96917.72
2019-05-30T11:58:42.905Z,96909.09
2019-05-30T12:01:32.724Z,96913.09
2019-05-30T12:04:16.062Z,96903.99
2019-05-30T12:07:06.366Z,96881.34
2019-05-30T12:09:50.766Z,96904.35
2019-05-30T12:12:41.037Z,96902.03
2019-05-30T12:15:24.186Z,96903.20
2019-05-30T12:18:14.760Z,96896.91
2019-05-30T12:20:58.201Z,96870.98
2019-05-30T12:24:07.602Z,96892.50
2019-05-30T12:26:51.884Z,96889.59
2019-05-30T12:29:42.352Z,96891.83
2019-05-30T12:32:25.134Z,96873.10
2019-05-30T12:35:15.653Z,96894.93
2019-05-30T12:38:02.655Z,96890.52
2019-05-30T12:40:50.921Z,96860.16
2019-05-30T12:43:33.542Z,96877.89
2019-05-30T12:46:23.974Z,96863.39
2019-05-30T12:49:06.701Z,96881.56
2019-05-30T12:51:58.295Z,96877.22
2019-05-30T12:54:42.092Z,96870.09
2019-05-30T12:57:44.251Z,96877.31
2019-05-30T13:00:26.923Z,96874.88
2019-05-30T13:03:17.348Z,96870.90
2019-05-30T13:06:07.794Z,96878.53
2019-05-30T13:08:59.057Z,96869.66
2019-05-30T13:11:42.446Z,96873.98
2019-05-30T13:14:32.724Z,96870.56
2019-05-30T13:17:16.077Z,96865.83
2019-05-30T13:23:23.386Z,96865.26
2019-05-30T13:26:13.692Z,96867.48
2019-05-30T13:32:08.289Z,96862.53
2019-05-30T13:34:51.481Z,96862.81
2019-05-30T13:37:41.986Z,96859.95
2019-05-30T13:40:32.282Z,96860.59
2019-05-30T13:43:14.860Z,96857.06
2019-05-30T13:46:06.366Z,96873.08
2019-05-30T13:48:49.756Z,96873.34
2019-05-30T13:51:52.626Z,96867.83
2019-05-30T13:54:35.876Z,96872.45
2019-05-30T13:57:45.248Z,96875.48
2019-05-30T14:00:28.345Z,96856.88
2019-05-30T14:03:18.631Z,96867.95
2019-05-30T14:06:03.009Z,96865.94
2019-05-30T14:08:53.772Z,96875.13
2019-05-30T14:11:36.591Z,96865.08
2019-05-30T14:14:26.896Z,96864.78
2019-05-30T14:17:12.319Z,96857.39
2019-05-30T14:20:02.932Z,96856.66
2019-05-30T14:22:46.581Z,96860.83
2019-05-30T14:25:36.895Z,96847.58
2019-05-30T14:28:20.197Z,96858.17
2019-05-30T14:31:11.916Z,96856.77
2019-05-30T14:33:55.309Z,96862.23
2019-05-30T14:36:45.645Z,96862.23
2019-05-30T14:39:28.893Z,96860.01
2019-05-30T14:42:19.186Z,96867.20
2019-05-30T14:45:30.059Z,96871.05
2019-05-30T14:48:13.150Z,96871.66
2019-05-30T14:51:15.519Z,96860.44
2019-05-30T14:53:58.417Z,96869.94
2019-05-30T14:59:50.942Z,96866.94
2019-05-30T15:02:41.232Z,96867.11
2019-05-30T15:05:24.535Z,96874.30
2019-05-30T15:08:14.793Z,96851.64
2019-05-30T15:10:57.440Z,96869.43
2019-05-30T15:13:47.777Z,96868.26
2019-05-30T15:16:31.143Z,96862.00
2019-05-30T15:19:21.466Z,96868.16
2019-05-30T15:22:05.469Z,96872.41
2019-05-30T15:24:55.941Z,96862.38
2019-05-30T15:27:39.478Z,96871.50
2019-05-30T15:30:29.773Z,96841.17
2019-05-30T15:33:12.882Z,96868.84
2019-05-30T15:36:03.168Z,96849.91
2019-05-30T15:38:53.451Z,96874.42
2019-05-30T15:41:36.779Z,96879.09
2019-05-30T15:44:40.074Z,96875.10
2019-05-30T15:47:23.014Z,96876.02
2019-05-30T15:50:14.177Z,96868.86
2019-05-30T15:52:58.467Z,96873.46
2019-05-30T15:55:48.748Z,96873.73
2019-05-30T15:58:32.116Z,96879.28
2019-05-30T16:01:22.413Z,96875.47
2019-05-30T16:04:12.692Z,96878.31
2019-05-30T16:06:56.087Z,96879.36
2019-05-30T16:09:46.717Z,96874.34
2019-05-30T16:12:30.531Z,96870.34
2019-05-30T16:15:13.476Z,96870.52
2019-05-30T16:18:03.779Z,96869.98
2019-05-30T16:20:47.251Z,96876.66
2019-05-30T16:23:37.651Z,96847.30
2019-05-30T16:26:21.985Z,96867.50
2019-05-30T16:29:13.596Z,96865.64
2019-05-30T16:31:56.501Z,96864.13
2019-05-30T16:34:46.211Z,96860.78
2019-05-30T16:37:31.820Z,96866.03
2019-05-30T16:40:22.454Z,96860.47
2019-05-30T16:43:06.587Z,96862.06
2019-05-30T16:45:49.170Z,96865.71
2019-05-30T16:48:38.978Z,96857.69
2019-05-30T16:51:48.374Z,96868.09
2019-05-30T16:54:38.168Z,96873.92
2019-05-30T16:57:27.986Z,96870.91
2019-05-30T17:00:18.152Z,96867.55
2019-05-30T17:02:48.798Z,96867.70
2019-05-30T17:05:38.610Z,96867.09
2019-05-30T17:08:20.792Z,96862.67
2019-05-30T17:11:30.172Z,96850.54
2019-05-30T17:14:21.734Z,96872.81
2019-05-30T17:17:05.783Z,96850.83
2019-05-30T17:19:55.577Z,96870.14
2019-05-30T17:25:50.695Z,96870.90
2019-05-30T17:28:34.035Z,96867.57
2019-05-30T17:31:23.994Z,96867.59
2019-05-30T17:34:08.307Z,96874.34
2019-05-30T17:36:58.571Z,96880.28
2019-05-30T17:39:43.314Z,96879.42
2019-05-30T17:42:33.685Z,96883.39
2019-05-30T17:45:16.391Z,96870.70
2019-05-30T17:48:16.020Z,96878.89
2019-05-30T17:50:51.629Z,96886.06
2019-05-30T17:53:42.001Z,96884.17
2019-05-30T17:56:26.116Z,96884.97
2019-05-30T17:59:15.955Z,96876.93
2019-05-30T18:02:00.971Z,96877.18
2019-05-30T18:04:51.600Z,96873.38
2019-05-30T18:07:35.031Z,96880.94
2019-05-30T18:10:24.962Z,96884.52
2019-05-30T18:19:06.004Z,96887.98
2019-05-30T18:21:55.768Z,96884.94
2019-05-30T18:24:41.945Z,96894.59
2019-05-30T18:27:28.029Z,96893.83
2019-05-30T18:30:19.331Z,96893.00
2019-05-30T18:33:22.141Z,96891.80
2019-05-30T18:36:04.057Z,96880.98
2019-05-30T18:38:55.037Z,96892.44
2019-05-30T18:41:41.199Z,96893.35
2019-05-30T18:44:32.825Z,96898.76
2019-05-30T18:47:14.907Z,96879.09
2019-05-30T18:50:05.248Z,96902.89
2019-05-30T18:52:48.535Z,96882.68
2019-05-30T18:55:38.947Z,96897.77
2019-05-30T18:58:24.744Z,96909.50
2019-05-30T19:01:34.000Z,96912.06
2019-05-30T19:04:17.140Z,96900.33
2019-05-30T19:10:12.528Z,96910.70
2019-05-30T19:12:55.922Z,96891.47
2019-05-30T19:15:46.406Z,96910.33
2019-05-30T19:18:36.220Z,96914.71
2019-05-30T19:21:27.889Z,96915.78
2019-05-30T19:24:18.714Z,96891.84
2019-05-30T19:33:28.966Z,96919.10
2019-05-30T19:36:18.681Z,96901.20
2019-05-30T19:39:02.846Z,96902.44
2019-05-30T19:42:12.234Z,96929.91
2019-05-30T19:44:55.421Z,96933.16
2019-05-30T19:47:45.173Z,96930.89
2019-05-30T19:50:28.420Z,96930.16
2019-05-30T19:53:18.197Z,96933.07
2019-05-30T19:56:08.077Z,96932.11
2019-05-30T19:58:51.529Z,96941.33
2019-05-30T20:01:41.346Z,96939.95
2019-05-30T20:04:32.191Z,96941.84
2019-05-30T20:07:15.619Z,96941.61
2019-05-30T20:10:26.019Z,96947.53
2019-05-30T20:13:28.427Z,96959.64
2019-05-30T20:16:12.556Z,96954.97
2019-05-30T20:19:02.230Z,96958.00
2019-05-30T20:21:45.128Z,96960.76
2019-05-30T20:24:34.846Z,96963.39
2019-05-30T20:27:24.184Z,96966.94
2019-05-30T20:30:14.205Z,96969.47
2019-05-30T20:32:56.843Z,96968.89
2019-05-30T20:35:46.958Z,96964.19
2019-05-30T20:38:30.211Z,96941.83
2019-05-30T20:41:12.083Z,96946.11
2019-05-30T20:44:01.827Z,96963.67
2019-05-30T20:46:51.732Z,96960.18
2019-05-30T20:49:41.446Z,96962.13
2019-05-30T20:52:25.786Z,96963.12
2019-05-30T20:55:15.569Z,96966.47
2019-05-30T20:57:57.547Z,96965.89
2019-05-30T21:00:47.273Z,96964.19
2019-05-30T21:03:29.227Z,96959.90
2019-05-30T21:06:19.311Z,96966.22
2019-05-30T21:09:01.547Z,96942.78
2019-05-30T21:15:07.083Z,96974.11
2019-05-30T21:18:17.434Z,96972.38
2019-05-30T21:21:26.302Z,96950.83
2019-05-30T21:24:16.225Z,96952.37
2019-05-30T21:27:05.987Z,96976.89
2019-05-30T21:29:55.765Z,96983.14
2019-05-30T21:35:49.555Z,96989.63
2019-05-30T21:38:32.365Z,96984.72
2019-05-30T21:41:02.991Z,96988.46
2019-05-30T21:43:52.729Z,96986.30
2019-05-30T21:46:38.900Z,96987.47
2019-05-30T21:49:21.142Z,96985.91
2019-05-30T21:52:11.045Z,96992.17
2019-05-30T21:55:03.246Z,96983.74
2019-05-30T21:57:46.032Z,96985.91
2019-05-30T22:03:20.689Z,96969.03
2019-05-30T22:06:10.475Z,96986.67
2019-05-30T22:08:53.142Z,96986.67
2019-05-30T22:11:43.645Z,96983.54
2019-05-30T22:14:27.255Z,96978.43
2019-05-30T22:20:06.740Z,96963.58
2019-05-30T22:22:52.200Z,96975.11
2019-05-30T22:25:36.771Z,96960.24
2019-05-30T22:37:12.540Z,96975.53
2019-05-30T22:42:58.366Z,96980.73
2019-05-30T22:45:41.017Z,96948.41
2019-05-30T22:48:30.767Z,96972.72
2019-05-30T22:51:20.623Z,96954.68
2019-05-30T22:54:10.658Z,96955.27
2019-05-30T22:57:01.404Z,96981.31
2019-05-30T22:59:44.692Z,96971.93
2019-05-30T23:02:34.416Z,96973.67
2019-05-30T23:05:16.446Z,96974.64
2019-05-30T23:08:06.494Z,96978.55
2019-05-30T23:10:49.650Z,96976.02
2019-05-30T23:13:40.750Z,96975.80
2019-05-30T23:16:23.186Z,96971.88
2019-05-30T23:19:12.916Z,96978.55
2019-05-30T23:21:55.517Z,96982.23
2019-05-30T23:24:45.232Z,96980.25
2019-05-30T23:27:27.843Z,96974.38
2019-05-30T23:30:17.742Z,96975.15
2019-05-30T23:33:00.374Z,96972.59
2019-05-30T23:35:50.336Z,96975.49
2019-05-30T23:38:32.700Z,96957.45
2019-05-30T23:41:22.402Z,96974.86
2019-05-30T23:44:11.203Z,96968.22
2019-05-30T23:46:56.192Z,96963.92
2019-05-30T23:49:38.805Z,96960.56
2019-05-30T23:52:28.529Z,96957.38
2019-05-30T23:55:12.849Z,96933.45
2019-05-30T23:58:02.545Z,96955.04
